Time;durP1;ratioP1;P1;durP2;ratioP2;P2;SDS_P1;SDS_P2;PMS_P1;PMS_P2;Temp;Humidity;BMP_temperature;BMP_pressure;BME280_temperature;BME280_humidity;BME280_pressure;Samples;Min_cycle;Max_cycle;Signal;HPM_P1;HPM_P2
2023/01/04 00:00:46;;;;;;;2.10;0.57;;;8.20;99.90;;;;;;5076637;28;20119;-72
2023/01/04 00:03:12;;;;;;;1.48;0.70;;;8.20;99.90;;;;;;5057176;28;20393;-72
2023/01/04 00:05:37;;;;;;;1.02;0.68;;;8.20;99.90;;;;;;5077801;28;20059;-72
2023/01/04 00:08:03;;;;;;;1.30;0.60;;;8.20;99.90;;;;;;5061492;28;20116;-72
2023/01/04 00:10:29;;;;;;;2.17;0.70;;;8.20;99.90;;;;;;5073320;28;20047;-73
2023/01/04 00:12:55;;;;;;;1.98;1.00;;;8.20;99.90;;;;;;5058449;28;20036;-72
2023/01/04 00:15:20;;;;;;;1.48;0.73;;;8.20;99.90;;;;;;5073701;28;20047;-73
2023/01/04 00:17:46;;;;;;;1.48;0.90;;;8.30;99.90;;;;;;5074882;28;20619;-72
2023/01/04 00:20:12;;;;;;;3.17;0.98;;;8.20;99.90;;;;;;5077349;28;20032;-72
2023/01/04 00:22:37;;;;;;;1.33;0.73;;;8.30;99.90;;;;;;5082930;28;20131;-72
2023/01/04 00:25:03;;;;;;;2.90;0.80;;;8.30;99.90;;;;;;5078657;28;20074;-72
2023/01/04 00:27:29;;;;;;;2.70;0.60;;;8.30;99.90;;;;;;5056950;28;20032;-72
2023/01/04 00:29:54;;;;;;;1.38;0.90;;;8.30;99.90;;;;;;5077125;28;20033;-72
2023/01/04 00:32:20;;;;;;;1.85;0.85;;;8.30;99.90;;;;;;5053943;28;20043;-72
2023/01/04 00:34:46;;;;;;;2.20;0.90;;;8.30;99.90;;;;;;5076773;28;20032;-72
2023/01/04 00:37:11;;;;;;;0.95;0.52;;;8.30;99.90;;;;;;5075498;28;20054;-72
2023/01/04 00:39:37;;;;;;;1.90;1.00;;;8.30;99.90;;;;;;5080250;28;20032;-73
2023/01/04 00:42:05;;;;;;;1.80;0.98;;;8.30;99.90;;;;;;5075916;28;20032;-72
2023/01/04 00:44:33;;;;;;;2.30;1.10;;;8.30;99.90;;;;;;5076665;28;20032;-73
2023/01/04 00:47:00;;;;;;;4.60;1.60;;;8.30;99.90;;;;;;5077439;28;20406;-72
2023/01/04 00:49:26;;;;;;;2.35;1.30;;;8.20;99.90;;;;;;5092140;28;20074;-72
2023/01/04 00:51:51;;;;;;;1.80;0.70;;;8.20;99.90;;;;;;5077618;28;20032;-72
2023/01/04 00:54:18;;;;;;;2.00;0.95;;;8.20;99.90;;;;;;5077025;28;20047;-72
2023/01/04 00:56:44;;;;;;;2.13;0.70;;;8.20;99.90;;;;;;5079791;28;20077;-72
2023/01/04 00:59:12;;;;;;;2.47;0.85;;;8.20;99.90;;;;;;5078761;28;20048;-72
2023/01/04 01:01:39;;;;;;;2.40;0.82;;;8.20;99.90;;;;;;5075753;28;20085;-72
2023/01/04 01:04:04;;;;;;;1.38;0.80;;;8.10;99.90;;;;;;5092578;28;20284;-72
2023/01/04 01:06:32;;;;;;;1.10;0.60;;;8.10;99.90;;;;;;5092328;28;20565;-73
2023/01/04 01:08:59;;;;;;;1.13;0.70;;;8.10;99.90;;;;;;5075883;28;20047;-73
2023/01/04 01:11:25;;;;;;;1.50;0.73;;;8.10;99.90;;;;;;5076470;28;20037;-72
2023/01/04 01:13:51;;;;;;;1.73;0.73;;;8.10;99.90;;;;;;5075606;28;20043;-72
2023/01/04 01:16:20;;;;;;;2.58;0.63;;;8.10;99.90;;;;;;5077454;28;20028;-73
2023/01/04 01:18:46;;;;;;;1.02;0.60;;;8.10;99.90;;;;;;5074983;28;20071;-72
2023/01/04 01:21:19;;;;;;;1.48;0.93;;;8.10;99.90;;;;;;5074679;28;20071;-72
2023/01/04 01:23:45;;;;;;;2.33;0.80;;;8.10;99.90;;;;;;5059546;28;21838;-72
2023/01/04 01:26:14;;;;;;;1.45;0.70;;;8.10;99.90;;;;;;5075567;28;20089;-72
2023/01/04 01:28:40;;;;;;;0.90;0.60;;;8.10;99.90;;;;;;5054883;28;20064;-73
2023/01/04 01:31:08;;;;;;;1.05;0.70;;;8.10;99.90;;;;;;5075167;28;20174;-73
2023/01/04 01:33:38;;;;;;;1.42;0.77;;;8.20;99.90;;;;;;5074441;28;20041;-73
2023/01/04 01:36:04;;;;;;;1.95;1.23;;;8.20;99.90;;;;;;5078204;28;20113;-73
2023/01/04 01:38:30;;;;;;;1.20;0.77;;;8.20;99.90;;;;;;5077584;28;20040;-72
2023/01/04 01:40:55;;;;;;;3.20;0.90;;;8.20;99.90;;;;;;5080669;28;20028;-73
2023/01/04 01:43:43;;;;;;;0.98;0.77;;;8.10;99.90;;;;;;5079708;28;20025;-73
2023/01/04 01:46:09;;;;;;;1.95;0.90;;;8.20;99.90;;;;;;5058387;28;20055;-72
2023/01/04 01:48:36;;;;;;;3.17;1.02;;;8.20;99.90;;;;;;5081128;28;20036;-72
2023/01/04 01:51:03;;;;;;;1.85;0.88;;;8.20;99.90;;;;;;5078071;28;20036;-73
2023/01/04 01:53:35;;;;;;;1.33;0.70;;;8.20;99.90;;;;;;5076706;28;20940;-73
2023/01/04 01:56:04;;;;;;;2.03;0.90;;;8.20;99.90;;;;;;5083190;28;20072;-73
2023/01/04 01:58:38;;;;;;;2.10;0.85;;;8.20;99.90;;;;;;5077267;28;20032;-72
2023/01/04 02:01:03;;;;;;;2.35;0.60;;;8.20;99.90;;;;;;5112275;27;20257;-73
2023/01/04 02:03:32;;;;;;;3.30;0.85;;;8.20;99.90;;;;;;5075152;28;20455;-73
2023/01/04 02:06:01;;;;;;;2.35;1.00;;;8.20;99.90;;;;;;5056529;28;20097;-73
2023/01/04 02:08:28;;;;;;;1.40;0.70;;;8.20;99.90;;;;;;5078761;28;20051;-73
2023/01/04 02:10:54;;;;;;;1.25;0.52;;;8.20;99.90;;;;;;5078557;28;20032;-73
2023/01/04 02:13:24;;;;;;;2.72;0.68;;;8.20;99.90;;;;;;5080185;28;20035;-73
2023/01/04 02:16:16;;;;;;;1.23;0.55;;;8.20;99.90;;;;;;5078122;28;20032;-73
2023/01/04 02:18:56;;;;;;;1.23;0.52;;;8.20;99.90;;;;;;5062799;28;20032;-73
2023/01/04 02:21:42;;;;;;;1.70;0.80;;;8.20;99.90;;;;;;5079873;28;20506;-73
2023/01/04 02:24:40;;;;;;;1.55;0.60;;;8.20;99.90;;;;;;5081673;28;20040;-74
2023/01/04 02:27:45;;;;;;;0.75;0.40;;;8.20;99.90;;;;;;5061101;28;21036;-73
2023/01/04 02:30:31;;;;;;;1.60;1.10;;;8.20;99.90;;;;;;5034349;28;20448;-73
2023/01/04 02:33:17;;;;;;;2.55;0.60;;;8.20;99.90;;;;;;5075082;28;20071;-73
2023/01/04 02:35:48;;;;;;;0.60;0.43;;;8.30;99.90;;;;;;5081260;28;20118;-73
2023/01/04 02:38:26;;;;;;;1.52;0.82;;;8.20;99.90;;;;;;5073014;28;20040;-73
2023/01/04 02:40:55;;;;;;;0.88;0.35;;;8.20;99.90;;;;;;5080650;28;20036;-73
2023/01/04 02:46:33;;;;;;;1.50;0.55;;;8.20;99.90;;;;;;5080573;28;20126;-73
2023/01/04 02:51:44;;;;;;;1.50;0.87;;;8.30;99.90;;;;;;5074884;28;20072;-73
2023/01/04 02:54:14;;;;;;;1.40;0.65;;;8.30;99.90;;;;;;5082660;28;20050;-73
2023/01/04 02:57:02;;;;;;;0.35;0.30;;;8.30;99.90;;;;;;5062494;28;20489;-73
2023/01/04 02:59:54;;;;;;;1.10;0.60;;;8.30;99.90;;;;;;5081285;28;20551;-73
2023/01/04 03:08:56;;;;;;;0.35;0.30;;;8.40;99.90;;;;;;5078975;28;20132;-73
2023/01/04 03:14:19;;;;;;;1.08;0.60;;;8.40;99.90;;;;;;5079152;28;20493;-73
2023/01/04 03:16:46;;;;;;;0.70;0.40;;;8.50;99.90;;;;;;5074143;28;20032;-73
2023/01/04 03:19:50;;;;;;;0.80;0.50;;;8.40;99.90;;;;;;5074157;28;20131;-73
2023/01/04 03:22:01;;;;;;;1.00;0.50;;;8.50;99.90;;;;;;5080058;28;20059;-72
2023/01/04 03:36:07;;;;;;;1.55;0.57;;;8.60;99.90;;;;;;5077287;28;20493;-73
2023/01/04 03:50:21;;;;;;;0.85;0.32;;;8.80;99.90;;;;;;5079827;28;20048;-73
2023/01/04 03:52:49;;;;;;;0.60;0.40;;;8.90;99.90;;;;;;5072608;28;20040;-73
2023/01/04 03:55:16;;;;;;;0.80;0.40;;;8.90;99.90;;;;;;5077675;28;20032;-73
2023/01/04 03:57:43;;;;;;;0.40;0.20;;;8.90;99.90;;;;;;5074231;28;20028;-73
2023/01/04 04:00:12;;;;;;;0.95;0.50;;;9.00;99.90;;;;;;5077649;28;20044;-73
2023/01/04 04:02:39;;;;;;;1.08;0.43;;;9.00;99.90;;;;;;5079946;28;20046;-73
2023/01/04 04:10:34;;;;;;;0.63;0.40;;;9.10;99.90;;;;;;5073184;28;20297;-73
2023/01/04 04:13:00;;;;;;;0.50;0.38;;;9.20;99.90;;;;;;5073656;28;20035;-73
2023/01/04 04:15:26;;;;;;;0.60;0.38;;;9.20;99.90;;;;;;5072165;28;20708;-73
2023/01/04 04:17:51;;;;;;;0.60;0.40;;;9.20;99.90;;;;;;5090130;28;20119;-73
2023/01/04 04:20:17;;;;;;;0.50;0.30;;;9.20;99.90;;;;;;5073523;28;20474;-73
2023/01/04 04:22:42;;;;;;;0.70;0.40;;;9.20;99.90;;;;;;5079129;28;20040;-73
2023/01/04 04:25:08;;;;;;;0.82;0.40;;;9.30;99.90;;;;;;5071462;28;20040;-73
2023/01/04 04:27:34;;;;;;;1.00;0.50;;;9.30;99.90;;;;;;5081169;28;20449;-73
2023/01/04 04:30:01;;;;;;;1.00;0.40;;;9.30;99.90;;;;;;5075161;28;20028;-73
2023/01/04 04:32:27;;;;;;;0.57;0.30;;;9.40;99.90;;;;;;5074477;28;20048;-73
2023/01/04 04:34:52;;;;;;;0.95;0.52;;;9.40;99.90;;;;;;5077288;28;20028;-73
2023/01/04 04:37:18;;;;;;;0.77;0.45;;;9.40;99.90;;;;;;5058537;28;20622;-73
2023/01/04 04:39:43;;;;;;;1.45;0.60;;;9.50;99.90;;;;;;5072664;28;20036;-73
2023/01/04 04:42:09;;;;;;;0.90;0.50;;;9.40;99.90;;;;;;5074566;28;20074;-73
2023/01/04 04:44:35;;;;;;;1.02;0.50;;;9.40;99.90;;;;;;5076545;28;20042;-73
2023/01/04 04:47:00;;;;;;;1.27;0.60;;;9.50;99.90;;;;;;5055157;28;20374;-73
2023/01/04 04:49:26;;;;;;;1.73;0.60;;;9.50;99.90;;;;;;5062057;28;20598;-73
2023/01/04 04:51:51;;;;;;;1.80;0.73;;;9.50;99.90;;;;;;5077825;28;20125;-73
2023/01/04 04:54:20;;;;;;;1.58;0.63;;;9.60;99.90;;;;;;5074113;28;20569;-73
2023/01/04 04:56:46;;;;;;;0.80;0.52;;;9.60;99.90;;;;;;5077003;28;20037;-73
2023/01/04 04:59:12;;;;;;;1.45;0.63;;;9.60;99.90;;;;;;5080668;28;20036;-73
2023/01/04 05:01:38;;;;;;;1.65;0.65;;;9.60;99.90;;;;;;5072653;28;20036;-73
2023/01/04 05:04:04;;;;;;;1.83;0.82;;;9.70;99.90;;;;;;5054899;28;20496;-73
2023/01/04 05:06:29;;;;;;;1.50;0.60;;;9.70;99.90;;;;;;5062580;28;20126;-73
2023/01/04 05:08:55;;;;;;;1.73;0.80;;;9.70;99.90;;;;;;5078615;28;20126;-73
2023/01/04 05:12:58;;;;;;;1.38;0.60;;;9.80;99.90;;;;;;5078382;28;20130;-73
2023/01/04 05:14:07;;;;;;;1.52;0.80;;;9.70;99.90;;;;;;5083590;28;20040;-74
2023/01/04 05:16:33;;;;;;;1.90;1.00;;;9.80;99.90;;;;;;5077915;28;20155;-74
2023/01/04 05:18:59;;;;;;;1.50;0.75;;;9.80;99.90;;;;;;5080123;28;20043;-73
2023/01/04 05:21:25;;;;;;;1.88;0.98;;;9.90;99.90;;;;;;5095113;28;20044;-73
2023/01/04 05:23:50;;;;;;;1.27;0.50;;;9.80;99.90;;;;;;5082485;28;20048;-73
2023/01/04 05:26:16;;;;;;;1.88;0.95;;;9.90;99.90;;;;;;5084645;28;20047;-73
2023/01/04 05:28:41;;;;;;;2.47;1.05;;;9.90;99.90;;;;;;5061771;28;20039;-73
2023/01/04 05:31:07;;;;;;;2.22;1.02;;;9.90;99.90;;;;;;5080505;28;20063;-73
2023/01/04 05:33:33;;;;;;;1.70;0.90;;;10.00;99.90;;;;;;5065037;28;20071;-73
2023/01/04 05:36:01;;;;;;;2.05;0.90;;;10.00;99.90;;;;;;5076943;28;20035;-73
2023/01/04 05:38:27;;;;;;;3.40;1.05;;;10.10;99.90;;;;;;5078710;28;20047;-73
2023/01/04 05:40:53;;;;;;;2.33;0.98;;;10.10;99.90;;;;;;5078534;28;20032;-73
2023/01/04 05:43:20;;;;;;;2.05;1.15;;;10.10;99.90;;;;;;5078308;28;20036;-73
2023/01/04 05:45:54;;;;;;;1.45;1.00;;;10.10;99.90;;;;;;5064646;28;20036;-74
2023/01/04 05:48:22;;;;;;;2.53;1.00;;;10.10;99.90;;;;;;5075216;28;20047;-73
2023/01/04 05:50:47;;;;;;;2.20;1.00;;;10.10;99.90;;;;;;5059167;28;20402;-73
2023/01/04 05:53:18;;;;;;;2.53;1.20;;;10.10;99.90;;;;;;5081813;28;20040;-73
2023/01/04 05:55:46;;;;;;;2.50;1.05;;;10.20;99.90;;;;;;5079226;28;20039;-73
2023/01/04 05:58:12;;;;;;;2.75;1.40;;;10.10;99.90;;;;;;5076919;28;20494;-73
2023/01/04 06:00:37;;;;;;;2.35;1.08;;;10.10;99.90;;;;;;5076873;28;20129;-74
2023/01/04 06:03:03;;;;;;;1.77;0.90;;;10.20;99.90;;;;;;5079968;28;20047;-73
2023/01/04 06:05:28;;;;;;;2.08;1.00;;;10.20;99.90;;;;;;5067654;28;20043;-73
2023/01/04 06:07:54;;;;;;;2.85;1.30;;;10.20;99.90;;;;;;5079560;28;20130;-73
2023/01/04 06:10:19;;;;;;;2.92;1.48;;;10.20;99.90;;;;;;5082096;28;20090;-73
2023/01/04 06:12:46;;;;;;;2.22;1.10;;;10.20;99.90;;;;;;5061588;28;20530;-73
2023/01/04 06:15:12;;;;;;;3.03;0.98;;;10.20;99.90;;;;;;5075977;28;20490;-73
2023/01/04 06:17:39;;;;;;;2.85;1.20;;;10.30;99.90;;;;;;5076471;28;20512;-73
2023/01/04 06:20:08;;;;;;;1.92;0.90;;;10.30;99.90;;;;;;5079047;28;20822;-74
2023/01/04 06:22:33;;;;;;;2.03;0.80;;;10.30;99.90;;;;;;5076343;28;20067;-73
2023/01/04 06:24:59;;;;;;;1.30;0.90;;;10.30;99.90;;;;;;5078460;28;20040;-73
2023/01/04 06:27:25;;;;;;;2.13;1.00;;;10.30;99.90;;;;;;5076208;28;20044;-73
2023/01/04 06:29:50;;;;;;;1.83;0.98;;;10.40;99.90;;;;;;5079259;28;20042;-73
2023/01/04 06:32:16;;;;;;;1.55;0.73;;;10.40;99.90;;;;;;5079503;28;20453;-73
2023/01/04 06:34:42;;;;;;;1.13;0.50;;;10.40;99.90;;;;;;5077084;28;20031;-73
2023/01/04 06:37:08;;;;;;;2.05;1.00;;;10.40;99.90;;;;;;5107536;27;20399;-73
2023/01/04 06:39:34;;;;;;;2.00;0.70;;;10.40;99.90;;;;;;5069983;28;20037;-73
2023/01/04 06:42:00;;;;;;;1.77;0.80;;;10.40;99.90;;;;;;5071909;28;20528;-73
2023/01/04 06:44:25;;;;;;;1.55;0.75;;;10.50;99.90;;;;;;5053715;28;20041;-73
2023/01/04 06:46:51;;;;;;;1.63;0.85;;;10.50;99.90;;;;;;5077702;28;21220;-77
2023/01/04 06:49:16;;;;;;;1.27;0.50;;;10.50;99.90;;;;;;5078863;28;20518;-73
2023/01/04 06:51:42;;;;;;;0.80;0.40;;;10.50;99.90;;;;;;5074310;28;20035;-73
2023/01/04 06:54:12;;;;;;;1.70;0.60;;;10.50;99.90;;;;;;5075687;28;20474;-73
2023/01/04 06:56:39;;;;;;;0.90;0.40;;;10.50;99.90;;;;;;5054551;28;20036;-73
2023/01/04 06:59:05;;;;;;;2.58;0.60;;;10.50;99.90;;;;;;5068606;28;20401;-73
2023/01/04 07:01:31;;;;;;;1.15;0.40;;;10.60;99.90;;;;;;5051227;28;20357;-73
2023/01/04 07:03:57;;;;;;;1.73;0.55;;;10.50;99.90;;;;;;5058588;28;20125;-73
2023/01/04 07:06:22;;;;;;;1.13;0.60;;;10.50;99.90;;;;;;5064436;28;20146;-73
2023/01/04 07:08:48;;;;;;;1.20;0.50;;;10.50;99.90;;;;;;5061138;28;20045;-73
2023/01/04 07:11:14;;;;;;;1.58;0.70;;;10.50;99.90;;;;;;5070136;28;20185;-73
2023/01/04 07:13:39;;;;;;;0.57;0.40;;;10.60;99.90;;;;;;5067258;28;20036;-73
2023/01/04 07:16:05;;;;;;;1.25;0.60;;;10.60;99.90;;;;;;5069292;28;20066;-79
2023/01/04 07:18:31;;;;;;;0.70;0.30;;;10.60;99.90;;;;;;5060515;28;20048;-80
2023/01/04 07:20:56;;;;;;;1.02;0.50;;;10.60;99.90;;;;;;5059329;28;20052;-73
2023/01/04 07:23:22;;;;;;;1.05;0.45;;;10.50;99.90;;;;;;5073958;28;20516;-74
2023/01/04 07:25:47;;;;;;;1.00;0.55;;;10.50;99.90;;;;;;5077276;28;20036;-73
2023/01/04 07:29:13;;;;;;;1.15;0.40;;;10.60;99.90;;;;;;5071874;28;20635;-73
2023/01/04 07:31:03;;;;;;;1.63;0.50;;;10.50;99.90;;;;;;5077850;28;20044;-73
2023/01/04 07:33:29;;;;;;;0.80;0.50;;;10.60;99.90;;;;;;5078741;28;20436;-73
2023/01/04 07:35:59;;;;;;;1.10;0.60;;;10.60;99.90;;;;;;5074166;28;20040;-73
2023/01/04 07:38:25;;;;;;;1.02;0.35;;;10.60;99.90;;;;;;5083330;28;20055;-73
2023/01/04 07:40:54;;;;;;;2.03;0.50;;;10.60;99.90;;;;;;5088524;28;20040;-73
2023/01/04 07:43:19;;;;;;;1.00;0.50;;;10.60;99.90;;;;;;5086849;28;20440;-73
2023/01/04 07:45:45;;;;;;;1.20;0.50;;;10.60;99.90;;;;;;5086596;28;20040;-73
2023/01/04 07:48:10;;;;;;;1.15;0.30;;;10.60;99.90;;;;;;5068572;28;20561;-73
2023/01/04 07:50:36;;;;;;;1.13;0.50;;;10.60;99.90;;;;;;5070589;28;20050;-73
2023/01/04 07:53:02;;;;;;;1.77;0.80;;;10.70;99.90;;;;;;5087209;28;20502;-73
2023/01/04 07:55:27;;;;;;;1.65;0.60;;;10.60;99.90;;;;;;5070500;28;20486;-73
2023/01/04 07:57:53;;;;;;;0.80;0.47;;;10.60;99.90;;;;;;5071400;28;20092;-73
2023/01/04 08:00:19;;;;;;;1.30;0.40;;;10.70;99.90;;;;;;5067368;28;20258;-73
2023/01/04 08:02:47;;;;;;;0.75;0.40;;;10.60;99.90;;;;;;5067671;28;20119;-72
2023/01/04 08:05:12;;;;;;;0.95;0.50;;;10.60;99.90;;;;;;5076924;28;20417;-73
2023/01/04 08:07:38;;;;;;;0.93;0.50;;;10.70;99.90;;;;;;5083496;28;20044;-73
2023/01/04 08:10:04;;;;;;;1.60;0.70;;;10.70;99.90;;;;;;5076600;28;20535;-73
2023/01/04 08:12:29;;;;;;;1.30;0.40;;;10.60;99.90;;;;;;5087730;28;20044;-73
2023/01/04 08:14:55;;;;;;;1.15;0.60;;;10.70;99.90;;;;;;5070455;28;20089;-73
2023/01/04 08:17:21;;;;;;;1.25;0.55;;;10.70;99.90;;;;;;5096893;28;20044;-74
2023/01/04 08:19:46;;;;;;;1.30;0.50;;;10.70;99.90;;;;;;5076260;28;20725;-73
2023/01/04 08:22:12;;;;;;;1.27;0.70;;;10.60;99.90;;;;;;5077374;28;20036;-73
2023/01/04 08:24:38;;;;;;;1.33;0.63;;;10.70;99.90;;;;;;5067829;28;20036;-73
2023/01/04 08:27:05;;;;;;;1.38;0.60;;;10.70;99.90;;;;;;5073848;28;20047;-73
2023/01/04 08:29:31;;;;;;;1.35;0.70;;;10.70;99.90;;;;;;5077032;28;20123;-73
2023/01/04 08:31:56;;;;;;;1.85;0.68;;;10.70;99.90;;;;;;5074288;28;20181;-73
2023/01/04 08:34:22;;;;;;;3.40;1.13;;;10.70;99.90;;;;;;5073969;28;20505;-73
2023/01/04 08:36:49;;;;;;;1.75;0.70;;;10.70;99.90;;;;;;5062613;28;20489;-73
2023/01/04 08:39:15;;;;;;;2.65;0.88;;;10.80;99.90;;;;;;5053764;28;20046;-73
2023/01/04 08:41:50;;;;;;;1.63;0.57;;;10.80;99.90;;;;;;5070233;28;20405;-73
2023/01/04 08:44:16;;;;;;;2.33;0.80;;;10.70;99.90;;;;;;5072744;28;20692;-73
2023/01/04 08:46:42;;;;;;;1.35;0.70;;;10.80;99.90;;;;;;5061407;28;20036;-73
2023/01/04 08:49:08;;;;;;;1.52;0.70;;;10.80;99.90;;;;;;5077744;28;20059;-73
2023/01/04 08:51:34;;;;;;;0.82;0.45;;;10.80;99.90;;;;;;5083416;28;20036;-73
2023/01/04 08:53:59;;;;;;;1.45;0.60;;;10.80;99.90;;;;;;5072470;28;20044;-73
2023/01/04 08:56:25;;;;;;;1.65;0.60;;;10.80;99.90;;;;;;5057087;28;20119;-73
2023/01/04 08:58:50;;;;;;;1.27;0.70;;;10.80;99.90;;;;;;5057570;28;20039;-73
2023/01/04 09:01:16;;;;;;;1.65;0.70;;;10.80;99.90;;;;;;5068930;28;20036;-74
2023/01/04 09:03:41;;;;;;;1.65;0.55;;;10.80;99.90;;;;;;5071807;28;20483;-73
2023/01/04 09:06:10;;;;;;;1.52;0.60;;;10.80;99.90;;;;;;5074180;28;20052;-73
2023/01/04 09:08:37;;;;;;;1.30;0.50;;;10.90;99.90;;;;;;5054313;28;20083;-73
2023/01/04 09:11:12;;;;;;;1.70;0.68;;;10.80;99.90;;;;;;5071457;28;20143;-73
2023/01/04 09:13:37;;;;;;;0.53;0.40;;;10.90;99.90;;;;;;5075696;28;20521;-73
2023/01/04 09:16:05;;;;;;;1.30;0.47;;;10.90;99.90;;;;;;5070897;28;20301;-73
2023/01/04 09:18:31;;;;;;;0.77;0.38;;;10.80;99.90;;;;;;5074151;28;20442;-73
2023/01/04 09:20:57;;;;;;;1.02;0.30;;;10.90;99.90;;;;;;5071168;28;20028;-73
2023/01/04 09:23:23;;;;;;;0.85;0.52;;;10.90;99.90;;;;;;5070560;28;20413;-72
2023/01/04 09:25:49;;;;;;;1.33;0.55;;;10.90;99.90;;;;;;5059406;28;20075;-73
2023/01/04 09:28:15;;;;;;;0.73;0.30;;;10.90;99.90;;;;;;5070898;28;20032;-73
2023/01/04 09:30:40;;;;;;;0.82;0.32;;;10.90;99.90;;;;;;5074549;28;20040;-73
2023/01/04 09:33:06;;;;;;;0.38;0.30;;;10.90;99.90;;;;;;5070135;28;20562;-72
2023/01/04 09:35:32;;;;;;;0.93;0.50;;;10.80;99.90;;;;;;5076158;28;20036;-79
2023/01/04 09:37:58;;;;;;;1.00;0.30;;;10.90;99.90;;;;;;5073771;28;20406;-77
2023/01/04 09:40:32;;;;;;;0.50;0.30;;;10.90;99.90;;;;;;5056272;28;20032;-75
2023/01/04 09:42:59;;;;;;;0.50;0.35;;;11.00;99.90;;;;;;5073962;28;20560;-74
2023/01/04 09:45:27;;;;;;;0.98;0.28;;;10.90;99.90;;;;;;5067020;28;20468;-74
2023/01/04 09:48:05;;;;;;;0.60;0.30;;;10.90;99.90;;;;;;5075897;28;20036;-74
2023/01/04 09:50:39;;;;;;;0.70;0.30;;;10.90;99.90;;;;;;5064174;28;20584;-74
2023/01/04 09:53:15;;;;;;;0.40;0.30;;;10.90;99.90;;;;;;5071080;28;20044;-74
2023/01/04 09:55:49;;;;;;;0.82;0.35;;;10.90;99.90;;;;;;5065711;28;20147;-74
2023/01/04 09:58:38;;;;;;;0.50;0.40;;;10.90;99.90;;;;;;5083863;27;20044;-74
2023/01/04 10:01:15;;;;;;;0.57;0.28;;;10.90;99.90;;;;;;5069142;28;20150;-74
2023/01/04 10:04:04;;;;;;;0.75;0.50;;;10.90;99.90;;;;;;5077009;28;20037;-74
2023/01/04 10:06:33;;;;;;;0.28;0.10;;;10.90;99.90;;;;;;5056443;28;20040;-74
2023/01/04 10:09:05;;;;;;;0.60;0.20;;;10.90;99.90;;;;;;5067233;28;20048;-75
2023/01/04 10:11:41;;;;;;;0.43;0.30;;;11.00;99.90;;;;;;5073909;28;20070;-74
2023/01/04 10:14:17;;;;;;;;;;;11.00;99.90;;;;;;5059772;28;20036;-81
2023/01/04 10:17:07;;;;;;;0.95;0.40;;;11.00;99.90;;;;;;5089332;27;19916;-74
2023/01/04 10:19:39;;;;;;;0.73;0.35;;;11.00;99.90;;;;;;5055829;28;20040;-74
2023/01/04 10:22:15;;;;;;;2.25;0.30;;;11.00;99.90;;;;;;5066501;28;20044;-74
2023/01/04 10:24:54;;;;;;;2.97;0.65;;;11.00;99.90;;;;;;5071975;28;20071;-74
2023/01/04 10:27:50;;;;;;;0.73;0.30;;;11.00;99.90;;;;;;5089276;27;20524;-75
2023/01/04 10:30:37;;;;;;;0.93;0.50;;;11.00;99.90;;;;;;5074868;28;20043;-74
2023/01/04 10:33:10;;;;;;;1.20;0.57;;;11.10;99.90;;;;;;5078946;28;20040;-74
2023/01/04 10:35:38;;;;;;;0.80;0.32;;;11.10;99.90;;;;;;5085475;28;20040;-75
2023/01/04 10:38:13;;;;;;;2.63;0.55;;;11.20;99.90;;;;;;5072234;28;20036;-74
2023/01/04 10:40:39;;;;;;;;;;;11.20;99.90;;;;;;5072660;28;20043;-73
2023/01/04 10:43:20;;;;;;;1.33;0.60;;;11.20;99.90;;;;;;5104910;27;19924;-74
2023/01/04 10:45:58;;;;;;;1.20;0.43;;;11.30;99.90;;;;;;5075142;28;20075;-74
2023/01/04 10:48:47;;;;;;;3.33;0.75;;;11.20;99.90;;;;;;5077452;28;20577;-74
2023/01/04 10:51:19;;;;;;;3.72;0.90;;;11.30;99.90;;;;;;5068702;28;20048;-75
2023/01/04 10:54:05;;;;;;;6.68;0.80;;;11.30;99.90;;;;;;5088749;27;20111;-74
2023/01/04 10:56:50;;;;;;;5.50;0.98;;;11.30;99.90;;;;;;5073485;28;20579;-74
2023/01/04 10:59:40;;;;;;;2.47;1.08;;;11.40;99.90;;;;;;5069086;28;20063;-74
2023/01/04 11:02:25;;;;;;;2.47;0.70;;;11.40;99.90;;;;;;5074055;28;20032;-74
2023/01/04 11:05:12;;;;;;;3.83;1.23;;;11.40;99.90;;;;;;5067874;28;20097;-74
2023/01/04 11:07:50;;;;;;;5.15;0.55;;;11.40;99.90;;;;;;5073914;28;20111;-74
2023/01/04 11:10:55;;;;;;;5.50;1.33;;;11.40;99.90;;;;;;5051465;28;20229;-74
2023/01/04 11:13:22;;;;;;;5.32;1.10;;;11.50;99.90;;;;;;5060843;28;20052;-74
2023/01/04 11:15:50;;;;;;;7.28;0.93;;;11.50;99.90;;;;;;5048678;28;20049;-74
2023/01/04 11:18:16;;;;;;;4.88;0.88;;;11.40;99.90;;;;;;5069694;28;20043;-74
2023/01/04 11:20:42;;;;;;;3.20;0.60;;;11.50;99.90;;;;;;5072191;28;20055;-74
2023/01/04 11:23:18;;;;;;;4.97;0.85;;;11.50;99.90;;;;;;5065607;28;20032;-74
2023/01/04 11:25:56;;;;;;;2.67;0.93;;;11.50;99.90;;;;;;5071150;28;20036;-74
2023/01/04 11:28:43;;;;;;;2.33;0.77;;;11.40;99.90;;;;;;5077877;28;20119;-74
2023/01/04 11:31:31;;;;;;;2.15;0.73;;;11.50;99.90;;;;;;5045245;28;20044;-74
2023/01/04 11:33:59;;;;;;;6.28;1.35;;;11.40;99.90;;;;;;5069187;28;20402;-74
2023/01/04 11:36:34;;;;;;;2.63;1.10;;;11.50;99.90;;;;;;5067574;28;20064;-73
2023/01/04 11:39:00;;;;;;;6.22;1.10;;;11.40;99.90;;;;;;5073466;28;20505;-74
2023/01/04 11:41:27;;;;;;;3.95;0.88;;;11.50;99.90;;;;;;5069252;28;20047;-74
2023/01/04 11:44:00;;;;;;;4.07;0.93;;;11.50;99.90;;;;;;5070485;28;20036;-74
2023/01/04 11:46:27;;;;;;;1.17;0.47;;;11.40;99.90;;;;;;5072710;28;20126;-73
2023/01/04 11:48:53;;;;;;;1.90;0.70;;;11.50;99.90;;;;;;5067193;28;20045;-74
2023/01/04 11:51:28;;;;;;;2.55;0.50;;;11.40;99.90;;;;;;5068491;28;20040;-74
2023/01/04 11:54:12;;;;;;;4.20;0.68;;;11.50;99.90;;;;;;5072490;28;20113;-74
2023/01/04 11:56:38;;;;;;;5.38;1.33;;;11.50;99.90;;;;;;5070908;28;20192;-74
2023/01/04 11:59:09;;;;;;;4.55;1.85;;;11.50;99.90;;;;;;5081084;28;20040;-73
2023/01/04 12:01:38;;;;;;;7.85;1.23;;;11.60;99.90;;;;;;5097227;27;20036;-73
2023/01/04 12:04:22;;;;;;;9.40;2.63;;;11.60;99.90;;;;;;5068089;28;20043;-73
2023/01/04 12:06:48;;;;;;;6.43;1.13;;;11.60;99.90;;;;;;5066331;28;20059;-74
2023/01/04 12:09:17;;;;;;;6.53;2.17;;;11.60;99.90;;;;;;5059972;28;20682;-74
2023/01/04 12:11:49;;;;;;;3.97;1.60;;;11.60;99.90;;;;;;5081381;28;20041;-73
2023/01/04 12:14:36;;;;;;;11.98;8.48;;;11.60;99.90;;;;;;5073291;28;20028;-74
2023/01/04 12:17:22;;;;;;;5.22;2.67;;;11.60;99.90;;;;;;5063130;28;20443;-74
2023/01/04 12:19:49;;;;;;;10.85;4.97;;;11.60;99.90;;;;;;5073095;28;20032;-74
2023/01/04 12:22:35;;;;;;;9.10;3.72;;;11.60;99.90;;;;;;5065712;28;20550;-74
2023/01/04 12:25:02;;;;;;;2.65;0.98;;;11.60;99.90;;;;;;5071351;28;20130;-74
2023/01/04 12:27:28;;;;;;;2.95;1.38;;;11.60;99.90;;;;;;5061615;28;20037;-74
2023/01/04 12:30:03;;;;;;;3.22;0.95;;;11.70;99.90;;;;;;5062121;28;20020;-73
2023/01/04 12:32:28;;;;;;;2.10;0.40;;;11.60;99.90;;;;;;5067316;28;20045;-74
2023/01/04 12:34:54;;;;;;;2.92;0.80;;;11.70;99.90;;;;;;5053544;28;20397;-74
2023/01/04 12:37:41;;;;;;;1.35;0.63;;;11.60;99.90;;;;;;5065303;28;20028;-74
2023/01/04 12:40:45;;;;;;;0.65;0.30;;;11.70;99.90;;;;;;5073760;28;20043;-74
2023/01/04 12:43:13;;;;;;;1.20;0.50;;;11.70;99.90;;;;;;5074837;28;20040;-75
2023/01/04 12:45:39;;;;;;;1.70;0.30;;;11.70;99.90;;;;;;5070117;28;20044;-73
2023/01/04 12:51:24;;;;;;;1.35;0.80;;;11.70;99.90;;;;;;5068920;28;20393;-74
2023/01/04 12:53:56;;;;;;;3.47;1.17;;;11.70;99.90;;;;;;5056508;28;20040;-74
2023/01/04 12:56:22;;;;;;;0.38;0.30;;;11.70;99.90;;;;;;5050737;28;20466;-73
2023/01/04 12:59:09;;;;;;;2.47;1.20;;;11.70;99.90;;;;;;5065198;28;20037;-73
2023/01/04 13:01:36;;;;;;;1.55;1.10;;;11.70;99.90;;;;;;5073207;28;20501;-73
2023/01/04 13:04:23;;;;;;;2.42;1.15;;;11.70;99.90;;;;;;5064291;28;20060;-74
2023/01/04 13:06:49;;;;;;;5.50;2.17;;;11.70;99.90;;;;;;5066649;28;20066;-74
2023/01/04 13:09:21;;;;;;;1.95;0.70;;;11.70;99.90;;;;;;5053408;28;20040;-74
2023/01/04 13:12:31;;;;;;;4.82;0.70;;;11.70;99.90;;;;;;5074462;28;20037;-74
2023/01/04 13:15:03;;;;;;;6.30;2.40;;;11.70;99.90;;;;;;5056520;28;20418;-74
2023/01/04 13:17:35;;;;;;;5.10;1.00;;;11.70;99.90;;;;;;5079839;28;20043;-74
2023/01/04 13:20:22;;;;;;;6.07;1.40;;;11.70;99.90;;;;;;5080683;28;20032;-74
2023/01/04 13:22:56;;;;;;;4.15;1.30;;;11.60;99.90;;;;;;5055358;28;20044;-74
2023/01/04 13:25:23;;;;;;;4.35;1.55;;;11.70;99.90;;;;;;5072095;28;20079;-74
2023/01/04 13:28:03;;;;;;;3.58;1.25;;;11.60;99.90;;;;;;5084034;28;20431;-73
2023/01/04 13:30:31;;;;;;;2.50;1.08;;;11.60;99.90;;;;;;5082012;28;20520;-73
2023/01/04 13:32:57;;;;;;;2.53;0.85;;;11.60;99.90;;;;;;5073393;28;20049;-73
2023/01/04 13:35:23;;;;;;;5.13;1.38;;;11.60;99.90;;;;;;5071899;28;20378;-73
2023/01/04 13:37:50;;;;;;;2.42;0.77;;;11.60;99.90;;;;;;5068255;28;20075;-74
2023/01/04 13:40:33;;;;;;;5.95;1.10;;;11.60;99.90;;;;;;5074407;28;20508;-74
2023/01/04 13:43:37;;;;;;;6.70;1.38;;;11.60;99.90;;;;;;5062649;28;20040;-74
2023/01/04 13:46:14;;;;;;;4.43;1.33;;;11.60;99.90;;;;;;5069184;28;20425;-74
2023/01/04 13:48:43;;;;;;;6.38;1.13;;;11.50;99.90;;;;;;5059046;28;20069;-74
2023/01/04 13:51:28;;;;;;;6.60;1.73;;;11.50;99.90;;;;;;5078739;28;20834;-74
2023/01/04 13:53:56;;;;;;;3.80;1.00;;;11.60;99.90;;;;;;5073212;28;20493;-74